sensor_id;sensor_type;location;lat;lon;timestamp;temperature;humidity
27671;DHT22;15077;49.704;9.908;2022-07-17T00:00:13;20.90;38.40
27671;DHT22;15077;49.704;9.908;2022-07-17T00:02:39;20.80;38.50
27671;DHT22;15077;49.704;9.908;2022-07-17T00:05:06;20.80;38.50
27671;DHT22;15077;49.704;9.908;2022-07-17T00:07:32;20.70;38.60
27671;DHT22;15077;49.704;9.908;2022-07-17T00:09:58;20.70;38.60
27671;DHT22;15077;49.704;9.908;2022-07-17T00:12:23;20.60;38.60
27671;DHT22;15077;49.704;9.908;2022-07-17T00:14:49;20.60;38.70
27671;DHT22;15077;49.704;9.908;2022-07-17T00:17:15;20.60;39.00
27671;DHT22;15077;49.704;9.908;2022-07-17T00:19:43;20.50;38.90
27671;DHT22;15077;49.704;9.908;2022-07-17T00:22:09;20.40;38.90
27671;DHT22;15077;49.704;9.908;2022-07-17T00:24:35;20.40;39.00
27671;DHT22;15077;49.704;9.908;2022-07-17T00:27:01;20.40;39.10
27671;DHT22;15077;49.704;9.908;2022-07-17T00:29:27;20.30;39.00
27671;DHT22;15077;49.704;9.908;2022-07-17T00:31:53;20.30;39.10
27671;DHT22;15077;49.704;9.908;2022-07-17T00:34:19;20.20;39.10
27671;DHT22;15077;49.704;9.908;2022-07-17T00:36:45;20.20;39.20
27671;DHT22;15077;49.704;9.908;2022-07-17T00:39:11;20.20;39.30
27671;DHT22;15077;49.704;9.908;2022-07-17T00:41:36;20.10;39.30
27671;DHT22;15077;49.704;9.908;2022-07-17T00:44:07;20.10;39.40
27671;DHT22;15077;49.704;9.908;2022-07-17T00:46:35;20.10;39.50
27671;DHT22;15077;49.704;9.908;2022-07-17T00:49:02;20.00;39.40
27671;DHT22;15077;49.704;9.908;2022-07-17T00:51:29;20.00;39.60
27671;DHT22;15077;49.704;9.908;2022-07-17T00:53:55;19.90;39.50
27671;DHT22;15077;49.704;9.908;2022-07-17T00:56:23;19.90;39.70
27671;DHT22;15077;49.704;9.908;2022-07-17T00:58:51;19.90;39.80
27671;DHT22;15077;49.704;9.908;2022-07-17T01:01:17;19.80;39.80
27671;DHT22;15077;49.704;9.908;2022-07-17T01:03:44;19.80;39.90
27671;DHT22;15077;49.704;9.908;2022-07-17T01:06:10;19.70;39.90
27671;DHT22;15077;49.704;9.908;2022-07-17T01:08:36;19.70;40.00
27671;DHT22;15077;49.704;9.908;2022-07-17T01:11:04;19.60;40.70
27671;DHT22;15077;49.704;9.908;2022-07-17T01:13:31;19.60;40.10
27671;DHT22;15077;49.704;9.908;2022-07-17T01:15:57;19.60;40.20
27671;DHT22;15077;49.704;9.908;2022-07-17T01:18:23;19.50;40.10
27671;DHT22;15077;49.704;9.908;2022-07-17T01:20:50;19.50;40.20
27671;DHT22;15077;49.704;9.908;2022-07-17T01:23:18;19.50;40.20
27671;DHT22;15077;49.704;9.908;2022-07-17T01:25:46;19.40;40.30
27671;DHT22;15077;49.704;9.908;2022-07-17T01:28:13;19.40;40.50
27671;DHT22;15077;49.704;9.908;2022-07-17T01:30:50;19.30;40.40
27671;DHT22;15077;49.704;9.908;2022-07-17T01:33:18;19.30;40.60
27671;DHT22;15077;49.704;9.908;2022-07-17T01:35:45;19.20;40.50
27671;DHT22;15077;49.704;9.908;2022-07-17T01:38:10;19.20;40.50
27671;DHT22;15077;49.704;9.908;2022-07-17T01:40:36;19.10;40.50
27671;DHT22;15077;49.704;9.908;2022-07-17T01:43:03;19.10;40.70
27671;DHT22;15077;49.704;9.908;2022-07-17T01:45:29;19.00;40.80
27671;DHT22;15077;49.704;9.908;2022-07-17T01:47:55;19.10;40.80
27671;DHT22;15077;49.704;9.908;2022-07-17T01:50:21;19.00;40.80
27671;DHT22;15077;49.704;9.908;2022-07-17T01:52:47;19.00;40.90
27671;DHT22;15077;49.704;9.908;2022-07-17T01:55:14;18.90;40.90
27671;DHT22;15077;49.704;9.908;2022-07-17T01:57:42;18.90;41.10
27671;DHT22;15077;49.704;9.908;2022-07-17T02:00:12;18.90;41.00
27671;DHT22;15077;49.704;9.908;2022-07-17T02:02:40;18.90;41.10
27671;DHT22;15077;49.704;9.908;2022-07-17T02:05:06;18.90;41.20
27671;DHT22;15077;49.704;9.908;2022-07-17T02:07:33;18.80;41.40
27671;DHT22;15077;49.704;9.908;2022-07-17T02:10:01;18.80;41.10
27671;DHT22;15077;49.704;9.908;2022-07-17T02:12:26;18.80;41.20
27671;DHT22;15077;49.704;9.908;2022-07-17T02:14:52;18.80;41.30
27671;DHT22;15077;49.704;9.908;2022-07-17T02:17:18;18.70;41.50
27671;DHT22;15077;49.704;9.908;2022-07-17T02:19:44;18.70;41.70
27671;DHT22;15077;49.704;9.908;2022-07-17T02:22:10;18.60;41.50
27671;DHT22;15077;49.704;9.908;2022-07-17T02:24:35;18.60;41.50
27671;DHT22;15077;49.704;9.908;2022-07-17T02:27:01;18.50;41.60
27671;DHT22;15077;49.704;9.908;2022-07-17T02:29:27;18.50;41.60
27671;DHT22;15077;49.704;9.908;2022-07-17T02:31:53;18.50;41.70
27671;DHT22;15077;49.704;9.908;2022-07-17T02:34:19;18.40;41.80
27671;DHT22;15077;49.704;9.908;2022-07-17T02:36:44;18.40;42.10
27671;DHT22;15077;49.704;9.908;2022-07-17T02:39:10;18.40;42.40
27671;DHT22;15077;49.704;9.908;2022-07-17T02:41:36;18.30;42.00
27671;DHT22;15077;49.704;9.908;2022-07-17T02:44:01;18.30;42.00
27671;DHT22;15077;49.704;9.908;2022-07-17T02:46:27;18.30;42.20
27671;DHT22;15077;49.704;9.908;2022-07-17T02:48:53;18.20;42.20
27671;DHT22;15077;49.704;9.908;2022-07-17T02:51:19;18.20;42.10
27671;DHT22;15077;49.704;9.908;2022-07-17T02:53:45;18.20;42.20
27671;DHT22;15077;49.704;9.908;2022-07-17T02:56:11;18.20;42.30
27671;DHT22;15077;49.704;9.908;2022-07-17T02:58:36;18.10;42.30
27671;DHT22;15077;49.704;9.908;2022-07-17T03:01:02;18.10;42.30
27671;DHT22;15077;49.704;9.908;2022-07-17T03:03:28;18.10;42.40
27671;DHT22;15077;49.704;9.908;2022-07-17T03:05:54;18.10;42.40
27671;DHT22;15077;49.704;9.908;2022-07-17T03:08:20;18.00;42.50
27671;DHT22;15077;49.704;9.908;2022-07-17T03:10:45;18.00;42.60
27671;DHT22;15077;49.704;9.908;2022-07-17T03:13:11;18.00;42.50
27671;DHT22;15077;49.704;9.908;2022-07-17T03:15:37;18.00;42.60
27671;DHT22;15077;49.704;9.908;2022-07-17T03:18:03;17.90;42.70
27671;DHT22;15077;49.704;9.908;2022-07-17T03:20:29;17.90;42.70
27671;DHT22;15077;49.704;9.908;2022-07-17T03:22:55;17.90;42.70
27671;DHT22;15077;49.704;9.908;2022-07-17T03:25:21;17.90;42.70
27671;DHT22;15077;49.704;9.908;2022-07-17T03:27:47;17.80;42.70
27671;DHT22;15077;49.704;9.908;2022-07-17T03:30:13;17.80;42.80
27671;DHT22;15077;49.704;9.908;2022-07-17T03:32:39;17.80;42.80
27671;DHT22;15077;49.704;9.908;2022-07-17T03:35:05;17.80;42.80
27671;DHT22;15077;49.704;9.908;2022-07-17T03:37:32;17.80;42.90
27671;DHT22;15077;49.704;9.908;2022-07-17T03:39:58;17.70;43.00
27671;DHT22;15077;49.704;9.908;2022-07-17T03:42:24;17.70;42.90
27671;DHT22;15077;49.704;9.908;2022-07-17T03:44:50;17.70;43.00
27671;DHT22;15077;49.704;9.908;2022-07-17T03:47:15;17.70;43.10
27671;DHT22;15077;49.704;9.908;2022-07-17T03:49:41;17.70;43.10
27671;DHT22;15077;49.704;9.908;2022-07-17T03:52:07;17.60;43.10
27671;DHT22;15077;49.704;9.908;2022-07-17T03:54:33;17.60;43.20
27671;DHT22;15077;49.704;9.908;2022-07-17T03:56:59;17.60;43.40
27671;DHT22;15077;49.704;9.908;2022-07-17T03:59:24;17.60;43.40
27671;DHT22;15077;49.704;9.908;2022-07-17T04:01:50;17.50;43.30
27671;DHT22;15077;49.704;9.908;2022-07-17T04:04:16;17.50;43.30
27671;DHT22;15077;49.704;9.908;2022-07-17T04:06:42;17.50;43.30
27671;DHT22;15077;49.704;9.908;2022-07-17T04:09:08;17.50;43.50
27671;DHT22;15077;49.704;9.908;2022-07-17T04:11:33;17.50;43.60
27671;DHT22;15077;49.704;9.908;2022-07-17T04:13:59;17.50;43.60
27671;DHT22;15077;49.704;9.908;2022-07-17T04:16:25;17.50;43.70
27671;DHT22;15077;49.704;9.908;2022-07-17T04:18:51;17.50;43.70
27671;DHT22;15077;49.704;9.908;2022-07-17T04:21:17;17.50;43.80
27671;DHT22;15077;49.704;9.908;2022-07-17T04:23:42;17.50;43.90
27671;DHT22;15077;49.704;9.908;2022-07-17T04:26:08;17.50;43.80
27671;DHT22;15077;49.704;9.908;2022-07-17T04:28:34;17.60;44.20
27671;DHT22;15077;49.704;9.908;2022-07-17T04:31:01;17.60;44.30
27671;DHT22;15077;49.704;9.908;2022-07-17T04:33:27;17.60;44.50
27671;DHT22;15077;49.704;9.908;2022-07-17T04:35:53;17.60;44.50
27671;DHT22;15077;49.704;9.908;2022-07-17T04:38:19;17.60;44.50
27671;DHT22;15077;49.704;9.908;2022-07-17T04:40:45;17.60;44.50
27671;DHT22;15077;49.704;9.908;2022-07-17T04:43:12;17.60;44.60
27671;DHT22;15077;49.704;9.908;2022-07-17T04:45:38;17.60;44.60
27671;DHT22;15077;49.704;9.908;2022-07-17T04:48:04;17.60;44.70
27671;DHT22;15077;49.704;9.908;2022-07-17T04:50:30;17.60;44.60
27671;DHT22;15077;49.704;9.908;2022-07-17T04:52:57;17.70;44.80
27671;DHT22;15077;49.704;9.908;2022-07-17T04:55:23;17.70;44.90
27671;DHT22;15077;49.704;9.908;2022-07-17T04:57:49;17.70;45.00
27671;DHT22;15077;49.704;9.908;2022-07-17T05:00:15;17.70;45.00
27671;DHT22;15077;49.704;9.908;2022-07-17T05:02:42;17.70;45.10
27671;DHT22;15077;49.704;9.908;2022-07-17T05:05:08;17.70;45.00
27671;DHT22;15077;49.704;9.908;2022-07-17T05:07:34;17.70;44.90
27671;DHT22;15077;49.704;9.908;2022-07-17T05:10:00;17.80;45.30
27671;DHT22;15077;49.704;9.908;2022-07-17T05:12:26;17.80;45.50
27671;DHT22;15077;49.704;9.908;2022-07-17T05:14:51;17.80;45.50
27671;DHT22;15077;49.704;9.908;2022-07-17T05:17:17;17.80;45.50
27671;DHT22;15077;49.704;9.908;2022-07-17T05:19:43;17.90;45.50
27671;DHT22;15077;49.704;9.908;2022-07-17T05:22:09;17.90;45.70
27671;DHT22;15077;49.704;9.908;2022-07-17T05:24:35;17.90;45.60
27671;DHT22;15077;49.704;9.908;2022-07-17T05:27:01;17.90;45.70
27671;DHT22;15077;49.704;9.908;2022-07-17T05:29:27;18.00;45.90
27671;DHT22;15077;49.704;9.908;2022-07-17T05:31:53;18.00;45.80
27671;DHT22;15077;49.704;9.908;2022-07-17T05:34:19;18.00;46.00
27671;DHT22;15077;49.704;9.908;2022-07-17T05:36:46;18.10;46.30
27671;DHT22;15077;49.704;9.908;2022-07-17T05:39:13;18.10;46.50
27671;DHT22;15077;49.704;9.908;2022-07-17T05:41:39;18.10;46.70
27671;DHT22;15077;49.704;9.908;2022-07-17T05:44:04;18.20;47.20
27671;DHT22;15077;49.704;9.908;2022-07-17T05:46:31;18.20;47.10
27671;DHT22;15077;49.704;9.908;2022-07-17T05:48:57;18.20;47.00
27671;DHT22;15077;49.704;9.908;2022-07-17T05:51:22;18.20;46.80
27671;DHT22;15077;49.704;9.908;2022-07-17T05:53:48;18.30;46.90
27671;DHT22;15077;49.704;9.908;2022-07-17T05:56:14;18.30;46.90
27671;DHT22;15077;49.704;9.908;2022-07-17T05:58:40;18.30;46.70
27671;DHT22;15077;49.704;9.908;2022-07-17T06:01:06;18.40;46.70
27671;DHT22;15077;49.704;9.908;2022-07-17T06:03:32;18.40;46.60
27671;DHT22;15077;49.704;9.908;2022-07-17T06:05:58;18.50;46.70
27671;DHT22;15077;49.704;9.908;2022-07-17T06:08:24;18.50;46.60
27671;DHT22;15077;49.704;9.908;2022-07-17T06:10:49;18.60;46.70
27671;DHT22;15077;49.704;9.908;2022-07-17T06:13:15;18.60;46.60
27671;DHT22;15077;49.704;9.908;2022-07-17T06:15:41;18.70;46.70
27671;DHT22;15077;49.704;9.908;2022-07-17T06:18:07;18.70;46.70
27671;DHT22;15077;49.704;9.908;2022-07-17T06:20:33;18.80;47.20
27671;DHT22;15077;49.704;9.908;2022-07-17T06:22:58;18.90;47.20
27671;DHT22;15077;49.704;9.908;2022-07-17T06:25:24;18.90;47.20
27671;DHT22;15077;49.704;9.908;2022-07-17T06:27:50;19.00;47.00
27671;DHT22;15077;49.704;9.908;2022-07-17T06:30:16;19.00;47.10
27671;DHT22;15077;49.704;9.908;2022-07-17T06:32:43;19.10;47.00
27671;DHT22;15077;49.704;9.908;2022-07-17T06:35:09;19.20;46.80
27671;DHT22;15077;49.704;9.908;2022-07-17T06:37:36;19.20;46.60
27671;DHT22;15077;49.704;9.908;2022-07-17T06:40:04;19.30;46.70
27671;DHT22;15077;49.704;9.908;2022-07-17T06:42:31;19.40;46.80
27671;DHT22;15077;49.704;9.908;2022-07-17T06:44:57;19.40;46.50
27671;DHT22;15077;49.704;9.908;2022-07-17T06:47:23;19.50;46.80
27671;DHT22;15077;49.704;9.908;2022-07-17T06:49:49;19.60;46.90
27671;DHT22;15077;49.704;9.908;2022-07-17T06:52:14;19.70;46.60
27671;DHT22;15077;49.704;9.908;2022-07-17T06:54:40;19.80;46.70
27671;DHT22;15077;49.704;9.908;2022-07-17T06:57:06;19.80;46.50
27671;DHT22;15077;49.704;9.908;2022-07-17T06:59:33;19.90;46.20
27671;DHT22;15077;49.704;9.908;2022-07-17T07:01:59;20.00;46.30
27671;DHT22;15077;49.704;9.908;2022-07-17T07:04:25;20.10;46.30
27671;DHT22;15077;49.704;9.908;2022-07-17T07:06:51;20.10;46.20
27671;DHT22;15077;49.704;9.908;2022-07-17T07:09:17;20.20;46.30
27671;DHT22;15077;49.704;9.908;2022-07-17T07:11:43;20.30;46.20
27671;DHT22;15077;49.704;9.908;2022-07-17T07:14:08;20.40;46.10
27671;DHT22;15077;49.704;9.908;2022-07-17T07:16:35;20.50;46.00
27671;DHT22;15077;49.704;9.908;2022-07-17T07:19:01;20.60;46.00
27671;DHT22;15077;49.704;9.908;2022-07-17T07:21:27;20.60;45.70
27671;DHT22;15077;49.704;9.908;2022-07-17T07:23:54;20.70;46.20
27671;DHT22;15077;49.704;9.908;2022-07-17T07:26:20;20.80;45.60
27671;DHT22;15077;49.704;9.908;2022-07-17T07:28:47;20.80;45.40
27671;DHT22;15077;49.704;9.908;2022-07-17T07:31:12;20.90;45.30
27671;DHT22;15077;49.704;9.908;2022-07-17T07:33:39;20.90;45.30
27671;DHT22;15077;49.704;9.908;2022-07-17T07:36:05;21.00;45.40
27671;DHT22;15077;49.704;9.908;2022-07-17T07:38:31;21.10;45.40
27671;DHT22;15077;49.704;9.908;2022-07-17T07:40:57;21.20;45.20
27671;DHT22;15077;49.704;9.908;2022-07-17T07:43:26;21.20;45.00
27671;DHT22;15077;49.704;9.908;2022-07-17T07:45:52;21.30;44.80
27671;DHT22;15077;49.704;9.908;2022-07-17T07:48:18;21.40;45.00
27671;DHT22;15077;49.704;9.908;2022-07-17T07:50:44;21.50;44.90
27671;DHT22;15077;49.704;9.908;2022-07-17T07:53:09;21.60;44.60
27671;DHT22;15077;49.704;9.908;2022-07-17T07:55:35;21.70;44.70
27671;DHT22;15077;49.704;9.908;2022-07-17T07:58:09;21.80;44.40
27671;DHT22;15077;49.704;9.908;2022-07-17T08:00:38;21.90;44.20
27671;DHT22;15077;49.704;9.908;2022-07-17T08:03:06;22.00;44.10
27671;DHT22;15077;49.704;9.908;2022-07-17T08:05:32;22.10;44.00
27671;DHT22;15077;49.704;9.908;2022-07-17T08:07:58;22.20;43.70
27671;DHT22;15077;49.704;9.908;2022-07-17T08:10:25;22.30;43.70
27671;DHT22;15077;49.704;9.908;2022-07-17T08:12:51;22.30;43.70
27671;DHT22;15077;49.704;9.908;2022-07-17T08:15:19;22.40;43.60
27671;DHT22;15077;49.704;9.908;2022-07-17T08:17:47;22.50;43.50
27671;DHT22;15077;49.704;9.908;2022-07-17T08:20:18;22.60;43.20
27671;DHT22;15077;49.704;9.908;2022-07-17T08:22:46;22.70;43.20
27671;DHT22;15077;49.704;9.908;2022-07-17T08:25:13;22.90;43.20
27671;DHT22;15077;49.704;9.908;2022-07-17T08:27:41;23.00;42.90
27671;DHT22;15077;49.704;9.908;2022-07-17T08:30:09;23.10;42.90
27671;DHT22;15077;49.704;9.908;2022-07-17T08:32:38;23.20;42.70
27671;DHT22;15077;49.704;9.908;2022-07-17T08:35:05;23.30;42.60
27671;DHT22;15077;49.704;9.908;2022-07-17T08:37:51;23.40;42.40
27671;DHT22;15077;49.704;9.908;2022-07-17T08:40:20;23.50;42.40
27671;DHT22;15077;49.704;9.908;2022-07-17T08:42:52;23.70;42.70
27671;DHT22;15077;49.704;9.908;2022-07-17T08:45:19;23.80;42.20
27671;DHT22;15077;49.704;9.908;2022-07-17T08:47:45;23.90;41.70
27671;DHT22;15077;49.704;9.908;2022-07-17T08:50:12;24.00;41.60
27671;DHT22;15077;49.704;9.908;2022-07-17T08:52:41;24.10;41.50
27671;DHT22;15077;49.704;9.908;2022-07-17T08:55:12;24.20;40.90
27671;DHT22;15077;49.704;9.908;2022-07-17T08:57:43;24.40;40.60
27671;DHT22;15077;49.704;9.908;2022-07-17T09:00:12;24.50;40.80
27671;DHT22;15077;49.704;9.908;2022-07-17T09:02:53;24.60;41.00
27671;DHT22;15077;49.704;9.908;2022-07-17T09:05:25;24.70;40.70
27671;DHT22;15077;49.704;9.908;2022-07-17T09:07:53;24.90;40.60
27671;DHT22;15077;49.704;9.908;2022-07-17T09:10:39;25.00;40.40
27671;DHT22;15077;49.704;9.908;2022-07-17T09:15:52;25.30;40.00
27671;DHT22;15077;49.704;9.908;2022-07-17T09:18:21;25.40;39.50
27671;DHT22;15077;49.704;9.908;2022-07-17T09:20:50;25.60;39.00
27671;DHT22;15077;49.704;9.908;2022-07-17T09:23:19;25.70;39.20
27671;DHT22;15077;49.704;9.908;2022-07-17T09:25:53;25.80;39.20
27671;DHT22;15077;49.704;9.908;2022-07-17T09:28:21;26.00;39.00
27671;DHT22;15077;49.704;9.908;2022-07-17T09:30:49;26.10;38.10
27671;DHT22;15077;49.704;9.908;2022-07-17T09:33:22;26.20;37.30
27671;DHT22;15077;49.704;9.908;2022-07-17T09:35:52;26.40;37.70
27671;DHT22;15077;49.704;9.908;2022-07-17T09:38:30;26.40;37.60
27671;DHT22;15077;49.704;9.908;2022-07-17T09:41:06;26.60;38.00
27671;DHT22;15077;49.704;9.908;2022-07-17T09:44:00;26.80;37.90
27671;DHT22;15077;49.704;9.908;2022-07-17T09:46:31;26.90;37.10
27671;DHT22;15077;49.704;9.908;2022-07-17T09:49:00;27.10;37.00
27671;DHT22;15077;49.704;9.908;2022-07-17T09:51:38;27.20;37.10
27671;DHT22;15077;49.704;9.908;2022-07-17T09:54:07;27.30;36.70
27671;DHT22;15077;49.704;9.908;2022-07-17T09:56:37;27.40;37.10
27671;DHT22;15077;49.704;9.908;2022-07-17T09:59:06;27.40;37.10
27671;DHT22;15077;49.704;9.908;2022-07-17T10:01:35;27.50;36.60
27671;DHT22;15077;49.704;9.908;2022-07-17T10:04:02;27.60;36.50
27671;DHT22;15077;49.704;9.908;2022-07-17T10:06:29;27.70;37.00
27671;DHT22;15077;49.704;9.908;2022-07-17T10:08:56;27.90;37.10
27671;DHT22;15077;49.704;9.908;2022-07-17T10:11:31;28.00;37.00
27671;DHT22;15077;49.704;9.908;2022-07-17T10:14:05;28.10;35.80
27671;DHT22;15077;49.704;9.908;2022-07-17T10:16:34;28.30;35.40
27671;DHT22;15077;49.704;9.908;2022-07-17T10:19:24;28.40;34.60
27671;DHT22;15077;49.704;9.908;2022-07-17T10:21:58;28.50;34.90
27671;DHT22;15077;49.704;9.908;2022-07-17T10:24:27;28.50;34.90
27671;DHT22;15077;49.704;9.908;2022-07-17T10:26:55;28.60;34.50
27671;DHT22;15077;49.704;9.908;2022-07-17T10:32:25;28.80;33.90
27671;DHT22;15077;49.704;9.908;2022-07-17T10:35:08;28.80;34.40
27671;DHT22;15077;49.704;9.908;2022-07-17T10:40:12;29.00;34.00
27671;DHT22;15077;49.704;9.908;2022-07-17T10:43:03;29.10;34.30
27671;DHT22;15077;49.704;9.908;2022-07-17T10:45:43;29.20;34.00
27671;DHT22;15077;49.704;9.908;2022-07-17T10:48:21;29.30;33.70
27671;DHT22;15077;49.704;9.908;2022-07-17T10:50:55;29.40;31.70
27671;DHT22;15077;49.704;9.908;2022-07-17T10:53:23;29.50;32.50
27671;DHT22;15077;49.704;9.908;2022-07-17T10:56:05;29.50;33.10
27671;DHT22;15077;49.704;9.908;2022-07-17T10:58:41;29.60;32.00
27671;DHT22;15077;49.704;9.908;2022-07-17T11:01:13;29.70;32.60
27671;DHT22;15077;49.704;9.908;2022-07-17T11:03:46;29.70;32.70
27671;DHT22;15077;49.704;9.908;2022-07-17T11:08:55;29.90;33.10
27671;DHT22;15077;49.704;9.908;2022-07-17T11:16:58;30.20;32.00
27671;DHT22;15077;49.704;9.908;2022-07-17T11:19:31;30.30;32.10
27671;DHT22;15077;49.704;9.908;2022-07-17T11:22:07;30.40;31.80
27671;DHT22;15077;49.704;9.908;2022-07-17T11:24:44;30.50;30.80
27671;DHT22;15077;49.704;9.908;2022-07-17T11:27:12;30.50;31.00
27671;DHT22;15077;49.704;9.908;2022-07-17T11:29:44;30.60;29.60
27671;DHT22;15077;49.704;9.908;2022-07-17T11:32:10;30.60;30.60
27671;DHT22;15077;49.704;9.908;2022-07-17T11:34:36;30.60;29.90
27671;DHT22;15077;49.704;9.908;2022-07-17T11:37:04;30.70;29.30
27671;DHT22;15077;49.704;9.908;2022-07-17T11:39:46;30.70;29.90
27671;DHT22;15077;49.704;9.908;2022-07-17T11:42:16;30.70;30.60
27671;DHT22;15077;49.704;9.908;2022-07-17T11:44:44;30.80;29.30
27671;DHT22;15077;49.704;9.908;2022-07-17T11:47:12;30.80;29.90
27671;DHT22;15077;49.704;9.908;2022-07-17T11:49:44;30.80;30.10
27671;DHT22;15077;49.704;9.908;2022-07-17T11:52:14;30.90;30.00
27671;DHT22;15077;49.704;9.908;2022-07-17T11:54:52;31.00;30.00
27671;DHT22;15077;49.704;9.908;2022-07-17T11:57:25;31.10;29.80
27671;DHT22;15077;49.704;9.908;2022-07-17T11:59:52;31.20;30.50
27671;DHT22;15077;49.704;9.908;2022-07-17T12:02:20;31.30;29.70
27671;DHT22;15077;49.704;9.908;2022-07-17T12:04:59;31.40;30.00
27671;DHT22;15077;49.704;9.908;2022-07-17T12:07:40;31.50;30.00
27671;DHT22;15077;49.704;9.908;2022-07-17T12:13:12;31.70;28.00
27671;DHT22;15077;49.704;9.908;2022-07-17T12:18:26;31.70;27.60
27671;DHT22;15077;49.704;9.908;2022-07-17T12:20:56;31.60;27.90
27671;DHT22;15077;49.704;9.908;2022-07-17T12:23:32;31.60;28.10
27671;DHT22;15077;49.704;9.908;2022-07-17T12:26:10;31.60;28.10
27671;DHT22;15077;49.704;9.908;2022-07-17T12:28:43;31.60;28.30
27671;DHT22;15077;49.704;9.908;2022-07-17T12:31:10;31.70;28.20
27671;DHT22;15077;49.704;9.908;2022-07-17T12:33:38;31.70;28.00
27671;DHT22;15077;49.704;9.908;2022-07-17T12:36:04;31.80;28.00
27671;DHT22;15077;49.704;9.908;2022-07-17T12:38:30;31.90;27.70
27671;DHT22;15077;49.704;9.908;2022-07-17T12:40:56;31.90;27.10
27671;DHT22;15077;49.704;9.908;2022-07-17T12:43:24;31.90;26.80
27671;DHT22;15077;49.704;9.908;2022-07-17T12:45:50;32.00;26.70
27671;DHT22;15077;49.704;9.908;2022-07-17T12:48:16;31.90;26.50
27671;DHT22;15077;49.704;9.908;2022-07-17T12:50:42;32.00;26.50
27671;DHT22;15077;49.704;9.908;2022-07-17T12:53:08;31.90;26.90
27671;DHT22;15077;49.704;9.908;2022-07-17T12:55:35;32.00;27.00
27671;DHT22;15077;49.704;9.908;2022-07-17T12:58:02;32.00;26.30
27671;DHT22;15077;49.704;9.908;2022-07-17T13:00:29;32.00;26.70
27671;DHT22;15077;49.704;9.908;2022-07-17T13:02:55;32.10;26.90
27671;DHT22;15077;49.704;9.908;2022-07-17T13:05:22;32.20;26.70
27671;DHT22;15077;49.704;9.908;2022-07-17T13:07:48;32.20;26.60
27671;DHT22;15077;49.704;9.908;2022-07-17T13:10:15;32.30;25.90
27671;DHT22;15077;49.704;9.908;2022-07-17T13:12:41;32.30;26.20
27671;DHT22;15077;49.704;9.908;2022-07-17T13:15:08;32.40;26.00
27671;DHT22;15077;49.704;9.908;2022-07-17T13:17:35;32.40;26.40
27671;DHT22;15077;49.704;9.908;2022-07-17T13:20:02;32.40;26.50
27671;DHT22;15077;49.704;9.908;2022-07-17T13:22:30;32.40;26.60
27671;DHT22;15077;49.704;9.908;2022-07-17T13:24:56;32.50;26.70
27671;DHT22;15077;49.704;9.908;2022-07-17T13:27:22;32.50;26.30
27671;DHT22;15077;49.704;9.908;2022-07-17T13:29:48;32.50;25.70
27671;DHT22;15077;49.704;9.908;2022-07-17T13:32:14;32.60;25.70
27671;DHT22;15077;49.704;9.908;2022-07-17T13:34:40;32.60;26.00
27671;DHT22;15077;49.704;9.908;2022-07-17T13:37:06;32.60;25.40
27671;DHT22;15077;49.704;9.908;2022-07-17T13:39:34;32.60;25.10
27671;DHT22;15077;49.704;9.908;2022-07-17T13:42:01;32.60;24.60
27671;DHT22;15077;49.704;9.908;2022-07-17T13:44:28;32.60;25.30
27671;DHT22;15077;49.704;9.908;2022-07-17T13:46:54;32.60;25.20
27671;DHT22;15077;49.704;9.908;2022-07-17T13:49:20;32.60;25.10
27671;DHT22;15077;49.704;9.908;2022-07-17T13:51:47;32.60;25.60
27671;DHT22;15077;49.704;9.908;2022-07-17T13:54:13;32.60;25.30
27671;DHT22;15077;49.704;9.908;2022-07-17T13:56:40;32.60;25.40
27671;DHT22;15077;49.704;9.908;2022-07-17T13:59:06;32.70;25.80
27671;DHT22;15077;49.704;9.908;2022-07-17T14:01:32;32.70;25.90
27671;DHT22;15077;49.704;9.908;2022-07-17T14:03:59;32.80;25.70
27671;DHT22;15077;49.704;9.908;2022-07-17T14:06:26;32.80;25.70
27671;DHT22;15077;49.704;9.908;2022-07-17T14:08:52;32.90;25.60
27671;DHT22;15077;49.704;9.908;2022-07-17T14:11:18;33.00;25.80
27671;DHT22;15077;49.704;9.908;2022-07-17T14:13:44;33.00;25.10
27671;DHT22;15077;49.704;9.908;2022-07-17T14:16:10;33.10;25.10
27671;DHT22;15077;49.704;9.908;2022-07-17T14:18:36;33.10;25.10
27671;DHT22;15077;49.704;9.908;2022-07-17T14:21:23;33.10;24.70
27671;DHT22;15077;49.704;9.908;2022-07-17T14:23:57;33.10;25.10
27671;DHT22;15077;49.704;9.908;2022-07-17T14:26:23;33.20;24.70
27671;DHT22;15077;49.704;9.908;2022-07-17T14:28:49;33.20;24.40
27671;DHT22;15077;49.704;9.908;2022-07-17T14:31:15;33.20;24.60
27671;DHT22;15077;49.704;9.908;2022-07-17T14:33:42;33.20;24.60
27671;DHT22;15077;49.704;9.908;2022-07-17T14:36:09;33.20;24.90
27671;DHT22;15077;49.704;9.908;2022-07-17T14:38:36;33.20;25.00
27671;DHT22;15077;49.704;9.908;2022-07-17T14:41:02;33.20;24.80
27671;DHT22;15077;49.704;9.908;2022-07-17T14:43:28;33.30;24.00
27671;DHT22;15077;49.704;9.908;2022-07-17T14:45:55;33.30;24.10
27671;DHT22;15077;49.704;9.908;2022-07-17T14:48:22;33.30;23.80
27671;DHT22;15077;49.704;9.908;2022-07-17T14:50:48;33.30;24.30
27671;DHT22;15077;49.704;9.908;2022-07-17T14:53:14;33.30;24.10
27671;DHT22;15077;49.704;9.908;2022-07-17T14:55:40;33.30;24.40
27671;DHT22;15077;49.704;9.908;2022-07-17T14:58:06;33.30;24.40
27671;DHT22;15077;49.704;9.908;2022-07-17T15:00:32;33.30;24.60
27671;DHT22;15077;49.704;9.908;2022-07-17T15:02:59;33.30;24.50
27671;DHT22;15077;49.704;9.908;2022-07-17T15:05:25;33.30;24.80
27671;DHT22;15077;49.704;9.908;2022-07-17T15:07:51;33.40;24.70
27671;DHT22;15077;49.704;9.908;2022-07-17T15:10:17;33.40;24.40
27671;DHT22;15077;49.704;9.908;2022-07-17T15:12:43;33.40;24.10
27671;DHT22;15077;49.704;9.908;2022-07-17T15:15:09;33.40;24.10
27671;DHT22;15077;49.704;9.908;2022-07-17T15:17:35;33.40;24.20
27671;DHT22;15077;49.704;9.908;2022-07-17T15:20:01;33.40;24.20
27671;DHT22;15077;49.704;9.908;2022-07-17T15:22:27;33.40;24.50
27671;DHT22;15077;49.704;9.908;2022-07-17T15:24:53;33.40;24.50
27671;DHT22;15077;49.704;9.908;2022-07-17T15:27:19;33.40;24.10
27671;DHT22;15077;49.704;9.908;2022-07-17T15:29:44;33.50;24.50
27671;DHT22;15077;49.704;9.908;2022-07-17T15:32:10;33.50;24.60
27671;DHT22;15077;49.704;9.908;2022-07-17T15:34:36;33.60;24.50
27671;DHT22;15077;49.704;9.908;2022-07-17T15:37:05;33.60;24.40
27671;DHT22;15077;49.704;9.908;2022-07-17T15:39:31;33.60;24.30
27671;DHT22;15077;49.704;9.908;2022-07-17T15:41:57;33.60;24.30
27671;DHT22;15077;49.704;9.908;2022-07-17T15:44:23;33.60;24.30
27671;DHT22;15077;49.704;9.908;2022-07-17T15:46:49;33.70;24.50
27671;DHT22;15077;49.704;9.908;2022-07-17T15:49:15;33.70;24.50
27671;DHT22;15077;49.704;9.908;2022-07-17T15:51:41;33.70;24.20
27671;DHT22;15077;49.704;9.908;2022-07-17T15:54:07;33.70;24.30